createdAt,value
2023-01-10T00:02:22.946Z,95855.44
2023-01-10T00:04:49.343Z,95852.09
2023-01-10T00:07:15.563Z,95843.59
2023-01-10T00:09:41.763Z,95834.06
2023-01-10T00:12:07.976Z,95841.84
2023-01-10T00:14:34.209Z,95852.84
2023-01-10T00:17:03.365Z,95848.00
2023-01-10T00:19:29.592Z,95845.00
2023-01-10T00:21:55.809Z,95840.69
2023-01-10T00:24:22.036Z,95823.72
2023-01-10T00:26:48.494Z,95826.31
2023-01-10T00:29:14.704Z,95815.78
2023-01-10T00:31:41.009Z,95808.13
2023-01-10T00:34:07.229Z,95802.19
2023-01-10T00:36:33.445Z,95814.38
2023-01-10T00:38:59.641Z,95806.50
2023-01-10T00:41:25.858Z,95793.78
2023-01-10T00:43:52.062Z,95801.88
2023-01-10T00:46:18.304Z,95809.53
2023-01-10T00:48:44.530Z,95820.94
2023-01-10T00:51:10.744Z,95832.03
2023-01-10T00:53:36.963Z,95849.41
2023-01-10T00:56:03.185Z,95855.31
2023-01-10T00:58:29.423Z,95858.97
2023-01-10T01:00:55.685Z,95857.81
2023-01-10T01:03:21.903Z,95871.81
2023-01-10T01:05:48.122Z,95877.72
2023-01-10T01:08:14.659Z,95887.44
2023-01-10T01:10:40.869Z,95883.75
2023-01-10T01:13:10.824Z,95881.59
2023-01-10T01:15:37.131Z,95872.53
2023-01-10T01:18:03.491Z,95871.75
2023-01-10T01:20:29.732Z,95877.94
2023-01-10T01:22:55.934Z,95887.97
2023-01-10T01:25:22.139Z,95884.28
2023-01-10T01:27:48.354Z,95896.69
2023-01-10T01:30:14.665Z,95907.38
2023-01-10T01:32:40.893Z,95905.97
2023-01-10T01:35:07.756Z,95902.41
2023-01-10T01:37:34.114Z,95901.22
2023-01-10T01:40:00.373Z,95913.50
2023-01-10T01:42:30.556Z,95926.06
2023-01-10T01:45:15.744Z,95933.84
2023-01-10T01:47:46.349Z,95953.44
2023-01-10T01:50:22.902Z,95950.88
2023-01-10T01:52:49.182Z,95954.53
2023-01-10T01:55:15.375Z,95966.38
2023-01-10T01:57:41.628Z,95970.81
2023-01-10T02:00:08.066Z,95979.88
2023-01-10T02:02:35.788Z,96001.41
2023-01-10T02:05:03.206Z,96021.00
2023-01-10T02:07:30.567Z,96052.22
2023-01-10T02:10:06.728Z,96062.47
2023-01-10T02:12:33.004Z,96056.31
2023-01-10T02:14:59.211Z,96060.31
2023-01-10T02:17:25.427Z,96053.88
2023-01-10T02:19:55.725Z,96061.91
2023-01-10T02:22:40.827Z,96056.13
2023-01-10T02:25:17.286Z,96047.09
2023-01-10T02:27:55.743Z,96050.44
2023-01-10T02:30:21.898Z,96048.28
2023-01-10T02:33:00.557Z,96042.16
2023-01-10T02:35:53.106Z,96035.91
2023-01-10T02:38:23.303Z,96045.59
2023-01-10T02:41:16.013Z,96037.84
2023-01-10T02:43:45.435Z,96038.28
2023-01-10T02:46:15.772Z,96040.13
2023-01-10T02:48:41.995Z,96037.53
2023-01-10T02:51:16.060Z,96042.69
2023-01-10T02:53:44.260Z,96048.63
2023-01-10T02:56:29.535Z,96050.56
2023-01-10T02:59:00.579Z,96045.81
2023-01-10T03:01:36.135Z,96048.41
2023-01-10T03:04:21.182Z,96049.94
2023-01-10T03:07:07.625Z,96057.06
2023-01-10T03:09:52.393Z,96060.41
2023-01-10T03:12:21.207Z,96066.00
2023-01-10T03:14:47.428Z,96070.41
2023-01-10T03:17:13.624Z,96081.09
2023-01-10T03:19:43.539Z,96075.06
2023-01-10T03:22:10.206Z,96095.75
2023-01-10T03:24:38.115Z,96100.28
2023-01-10T03:27:08.980Z,96113.97
2023-01-10T03:29:39.129Z,96125.97
2023-01-10T03:32:05.678Z,96131.88
2023-01-10T03:34:31.966Z,96146.34
2023-01-10T03:37:04.594Z,96156.38
2023-01-10T03:39:30.755Z,96165.31
2023-01-10T03:42:06.776Z,96189.38
2023-01-10T03:44:34.857Z,96197.13
2023-01-10T03:47:01.037Z,96208.69
2023-01-10T03:49:27.325Z,96225.25
2023-01-10T03:51:53.530Z,96240.25
2023-01-10T03:54:19.742Z,96245.09
2023-01-10T03:56:46.983Z,96263.09
2023-01-10T03:59:13.209Z,96264.59
2023-01-10T04:01:39.555Z,96248.44
2023-01-10T04:04:05.896Z,96261.25
2023-01-10T04:06:32.109Z,96259.44
2023-01-10T04:08:58.344Z,96277.53
2023-01-10T04:11:24.534Z,96289.59
2023-01-10T04:13:50.743Z,96296.41
2023-01-10T04:16:16.986Z,96314.41
2023-01-10T04:18:43.715Z,96332.06
2023-01-10T04:21:10.008Z,96350.19
2023-01-10T04:23:36.210Z,96368.47
2023-01-10T04:26:02.435Z,96380.75
2023-01-10T04:28:28.679Z,96423.13
2023-01-10T04:30:54.893Z,96445.34
2023-01-10T04:33:21.099Z,96466.81
2023-01-10T04:35:47.998Z,96508.81
2023-01-10T04:38:14.207Z,96524.66
2023-01-10T04:40:40.419Z,96533.00
2023-01-10T04:43:06.620Z,96548.53
2023-01-10T04:45:32.870Z,96557.50
2023-01-10T04:47:59.097Z,96585.06
2023-01-10T04:50:25.472Z,96615.81
2023-01-10T04:52:51.682Z,96656.44
2023-01-10T04:55:17.928Z,96688.41
2023-01-10T04:57:44.154Z,96719.47
2023-01-10T05:00:10.703Z,96743.97
2023-01-10T05:02:37.046Z,96780.19
2023-01-10T05:05:03.341Z,96795.56
2023-01-10T05:07:29.542Z,96818.50
2023-01-10T05:09:55.757Z,96842.28
2023-01-10T05:12:21.954Z,96866.94
2023-01-10T05:14:48.157Z,96896.59
2023-01-10T05:17:14.364Z,96903.16
2023-01-10T05:19:40.588Z,96909.06
2023-01-10T05:22:06.817Z,96919.75
2023-01-10T05:24:33.043Z,96963.38
2023-01-10T05:26:59.238Z,97044.94
2023-01-10T05:29:25.429Z,97106.31
2023-01-10T05:31:51.787Z,97141.38
2023-01-10T05:34:18.014Z,97148.69
2023-01-10T05:36:44.230Z,97161.41
2023-01-10T05:39:10.443Z,97180.06
2023-01-10T05:41:36.658Z,97180.66
2023-01-10T05:44:02.854Z,97160.38
2023-01-10T05:46:29.072Z,97153.56
2023-01-10T05:48:55.276Z,97130.00
2023-01-10T05:51:21.495Z,97109.44
2023-01-10T05:53:48.534Z,97107.38
2023-01-10T05:56:15.820Z,97096.13
2023-01-10T05:58:42.033Z,97115.94
2023-01-10T06:01:08.372Z,97138.16
2023-01-10T06:03:34.607Z,97154.47
2023-01-10T06:06:00.827Z,97170.94
2023-01-10T06:08:27.032Z,97193.63
2023-01-10T06:10:53.276Z,97202.44
2023-01-10T06:13:19.493Z,97203.38
2023-01-10T06:15:45.767Z,97218.31
2023-01-10T06:18:12.533Z,97229.88
2023-01-10T06:20:39.176Z,97253.69
2023-01-10T06:23:05.381Z,97279.03
2023-01-10T06:25:35.118Z,97306.19
2023-01-10T06:28:01.336Z,97323.53
2023-01-10T06:30:27.550Z,97343.66
2023-01-10T06:32:53.759Z,97373.47
2023-01-10T06:35:19.998Z,97377.88
2023-01-10T06:37:46.218Z,97379.72
2023-01-10T06:40:12.439Z,97375.56
2023-01-10T06:42:39.732Z,97373.72
2023-01-10T06:45:06.092Z,97369.63
2023-01-10T06:47:32.303Z,97376.63
2023-01-10T06:49:58.507Z,97381.81
2023-01-10T06:52:24.731Z,97392.44
2023-01-10T06:54:50.932Z,97412.38
2023-01-10T06:57:17.158Z,97426.38
2023-01-10T06:59:43.386Z,97450.44
2023-01-10T07:02:10.240Z,97484.25
2023-01-10T07:04:36.482Z,97523.75
2023-01-10T07:07:02.693Z,97527.28
2023-01-10T07:09:28.923Z,97545.13
2023-01-10T07:11:55.159Z,97562.75
2023-01-10T07:14:21.380Z,97572.34
2023-01-10T07:16:47.605Z,97593.53
2023-01-10T07:19:13.808Z,97621.50
2023-01-10T07:21:40.020Z,97656.97
2023-01-10T07:24:06.512Z,97682.63
2023-01-10T07:26:32.717Z,97714.72
2023-01-10T07:28:58.913Z,97726.41
2023-01-10T07:31:25.179Z,97722.25
2023-01-10T07:33:51.601Z,97750.25
2023-01-10T07:36:17.819Z,97783.88
2023-01-10T07:38:44.036Z,97804.84
2023-01-10T07:41:10.259Z,97829.47
2023-01-10T07:43:36.469Z,97836.69
2023-01-10T07:46:03.253Z,97847.78
2023-01-10T07:48:29.538Z,97855.25
2023-01-10T07:50:59.326Z,97864.84
2023-01-10T07:53:25.876Z,97875.94
2023-01-10T07:55:52.119Z,97886.81
2023-01-10T07:58:18.355Z,97892.00
2023-01-10T08:00:44.587Z,97933.44
2023-01-10T08:03:10.925Z,97951.59
2023-01-10T08:05:37.163Z,97951.59
2023-01-10T08:08:04.094Z,97941.00
2023-01-10T08:10:30.299Z,97937.59
2023-01-10T08:12:57.810Z,97936.22
2023-01-10T08:15:25.759Z,97931.06
2023-01-10T08:17:52.003Z,97929.72
2023-01-10T08:20:18.218Z,97929.44
2023-01-10T08:22:44.447Z,97948.34
2023-01-10T08:25:10.725Z,97968.50
2023-01-10T08:27:37.007Z,97984.78
2023-01-10T08:30:04.134Z,97994.38
2023-01-10T08:32:30.358Z,98005.44
2023-01-10T08:34:56.583Z,98019.66
2023-01-10T08:37:22.785Z,98079.28
2023-01-10T08:39:48.981Z,98096.41
2023-01-10T08:42:15.214Z,98108.06
2023-01-10T08:44:41.428Z,98121.00
2023-01-10T08:47:07.650Z,98128.03
2023-01-10T08:49:33.889Z,98131.84
2023-01-10T08:52:00.936Z,98143.47
2023-01-10T08:54:27.144Z,98163.91
2023-01-10T08:56:53.363Z,98161.84
2023-01-10T08:59:19.563Z,98183.56
2023-01-10T09:01:45.844Z,98216.16
2023-01-10T09:04:12.127Z,98235.63
2023-01-10T09:06:38.357Z,98247.78
2023-01-10T09:09:04.674Z,98254.78
2023-01-10T09:11:30.895Z,98281.19
2023-01-10T09:13:57.113Z,98307.38
2023-01-10T09:16:23.389Z,98314.63
2023-01-10T09:18:49.669Z,98318.22
2023-01-10T09:21:15.871Z,98316.66
2023-01-10T09:23:42.095Z,98324.41
2023-01-10T09:26:08.309Z,98362.97
2023-01-10T09:28:34.525Z,98381.06
2023-01-10T09:31:00.812Z,98364.97
2023-01-10T09:33:35.011Z,98385.66
2023-01-10T09:36:09.627Z,98416.47
2023-01-10T09:38:36.438Z,98447.81
2023-01-10T09:41:21.376Z,98471.88
2023-01-10T09:43:53.451Z,98505.78
2023-01-10T09:46:25.795Z,98528.06
2023-01-10T09:49:03.895Z,98556.03
2023-01-10T09:51:35.736Z,98586.59
2023-01-10T09:54:11.196Z,98597.47
2023-01-10T09:56:38.465Z,98610.41
2023-01-10T09:59:04.708Z,98622.59
2023-01-10T10:01:32.909Z,98675.97
2023-01-10T10:04:21.033Z,98686.06
2023-01-10T10:06:50.633Z,98711.97
2023-01-10T10:09:17.392Z,98739.44
2023-01-10T10:12:03.853Z,98762.78
2023-01-10T10:14:48.851Z,98789.22
2023-01-10T10:17:25.141Z,98812.25
2023-01-10T10:20:03.040Z,98844.91
2023-01-10T10:22:45.147Z,98863.56
2023-01-10T10:25:11.308Z,98881.69
2023-01-10T10:27:55.945Z,98903.16
2023-01-10T10:30:27.526Z,98924.38
2023-01-10T10:32:53.702Z,98932.69
2023-01-10T10:35:27.519Z,98938.66
2023-01-10T10:37:54.102Z,98959.63
2023-01-10T10:40:21.598Z,98963.81
2023-01-10T10:42:48.500Z,98960.72
2023-01-10T10:45:20.845Z,98996.22
2023-01-10T10:47:49.646Z,99030.88
2023-01-10T10:50:16.014Z,99041.00
2023-01-10T10:52:42.376Z,99063.81
2023-01-10T10:55:12.843Z,99078.66
2023-01-10T10:57:43.476Z,99086.75
2023-01-10T11:00:18.101Z,99101.03
2023-01-10T11:02:49.537Z,99118.09
2023-01-10T11:05:23.890Z,99130.84
2023-01-10T11:07:50.087Z,99154.31
2023-01-10T11:10:25.306Z,99160.63
2023-01-10T11:12:51.520Z,99184.75
2023-01-10T11:15:36.456Z,99192.53
2023-01-10T11:18:21.743Z,99209.84
2023-01-10T11:21:00.761Z,99220.22
2023-01-10T11:23:37.448Z,99233.72
2023-01-10T11:26:04.504Z,99241.41
2023-01-10T11:28:31.223Z,99231.41
2023-01-10T11:30:57.442Z,99250.56
2023-01-10T11:33:26.078Z,99256.75
2023-01-10T11:36:05.718Z,99272.03
2023-01-10T11:38:32.473Z,99271.59
2023-01-10T11:41:03.048Z,99265.94
2023-01-10T11:43:33.521Z,99268.31
2023-01-10T11:46:00.971Z,99274.53
2023-01-10T11:48:56.240Z,99279.66
2023-01-10T11:51:23.128Z,99277.91
2023-01-10T11:53:49.603Z,99292.16
2023-01-10T11:56:23.250Z,99299.13
2023-01-10T11:58:49.467Z,99310.00
2023-01-10T12:01:31.007Z,99316.44
2023-01-10T12:03:57.225Z,99307.16
2023-01-10T12:06:23.433Z,99323.50
2023-01-10T12:08:49.687Z,99317.22
2023-01-10T12:11:31.842Z,99312.59
2023-01-10T12:13:58.719Z,99333.81
2023-01-10T12:16:24.934Z,99347.75
2023-01-10T12:18:51.858Z,99343.34
2023-01-10T12:21:23.174Z,99350.09
2023-01-10T12:23:49.403Z,99351.66
2023-01-10T12:26:15.596Z,99358.22
2023-01-10T12:28:47.902Z,99380.47
2023-01-10T12:31:14.276Z,99400.44
2023-01-10T12:33:47.538Z,99423.47
2023-01-10T12:36:23.663Z,99449.16
2023-01-10T12:39:02.023Z,99463.75
2023-01-10T12:41:35.182Z,99485.19
2023-01-10T12:44:01.823Z,99494.53
2023-01-10T12:47:05.164Z,99512.28
2023-01-10T12:49:25.831Z,99535.13
2023-01-10T12:51:52.719Z,99552.09
2023-01-10T12:54:19.735Z,99565.38
2023-01-10T12:56:45.957Z,99600.09
2023-01-10T12:59:37.653Z,99631.22
2023-01-10T13:02:10.094Z,99654.88
2023-01-10T13:04:36.448Z,99672.47
2023-01-10T13:07:02.660Z,99682.31
2023-01-10T13:09:28.956Z,99689.84
2023-01-10T13:11:57.046Z,99701.25
2023-01-10T13:14:25.098Z,99717.28
2023-01-10T13:16:57.224Z,99717.16
2023-01-10T13:19:24.644Z,99707.28
2023-01-10T13:21:50.897Z,99721.06
2023-01-10T13:24:26.366Z,99719.00
2023-01-10T13:26:53.572Z,99736.44
2023-01-10T13:29:20.848Z,99750.13
2023-01-10T13:31:49.034Z,99749.81
2023-01-10T13:34:16.077Z,99744.63
2023-01-10T13:36:53.750Z,99747.22
2023-01-10T13:39:34.966Z,99757.59
2023-01-10T13:42:01.128Z,99757.59
2023-01-10T13:44:27.325Z,99748.47
2023-01-10T13:46:53.543Z,99744.53
2023-01-10T13:49:26.805Z,99728.75
2023-01-10T13:52:11.864Z,99730.56
2023-01-10T13:54:38.075Z,99740.84
2023-01-10T13:57:24.260Z,99719.53
2023-01-10T14:00:00.712Z,99709.72
2023-01-10T14:02:26.987Z,99724.22
2023-01-10T14:04:53.487Z,99717.25
2023-01-10T14:07:33.327Z,99721.63
2023-01-10T14:10:04.888Z,99729.75
2023-01-10T14:12:32.513Z,99745.31
2023-01-10T14:14:59.842Z,99746.53
2023-01-10T14:17:29.723Z,99749.63
2023-01-10T14:20:03.823Z,99739.50
2023-01-10T14:22:30.808Z,99739.97
2023-01-10T14:24:57.084Z,99737.59
2023-01-10T14:27:23.295Z,99732.97
2023-01-10T14:29:50.986Z,99725.09
2023-01-10T14:32:36.871Z,99713.94
2023-01-10T14:35:03.777Z,99696.59
2023-01-10T14:37:42.162Z,99705.16
2023-01-10T14:40:24.375Z,99699.97
2023-01-10T14:42:50.586Z,99696.81
2023-01-10T14:45:38.034Z,99697.28
2023-01-10T14:48:23.120Z,99677.81
2023-01-10T14:50:49.319Z,99681.81
2023-01-10T14:53:25.453Z,99682.16
2023-01-10T14:55:51.662Z,99694.09
2023-01-10T14:58:17.884Z,99703.34
2023-01-10T15:00:44.330Z,99695.25
2023-01-10T15:03:14.932Z,99683.78
2023-01-10T15:05:45.096Z,99676.72
2023-01-10T15:08:20.267Z,99663.28
2023-01-10T15:10:46.470Z,99667.59
2023-01-10T15:13:13.682Z,99658.25
2023-01-10T15:15:39.892Z,99665.22
2023-01-10T15:18:24.853Z,99655.03
2023-01-10T15:20:51.067Z,99662.97
2023-01-10T15:23:17.303Z,99655.88
2023-01-10T15:25:43.525Z,99643.97
2023-01-10T15:28:13.778Z,99634.69
2023-01-10T15:30:40.067Z,99640.44
2023-01-10T15:33:07.593Z,99648.34
2023-01-10T15:35:36.498Z,99633.59
2023-01-10T15:38:16.404Z,99628.09
2023-01-10T15:40:42.617Z,99613.81
2023-01-10T15:43:10.490Z,99611.28
2023-01-10T15:45:36.830Z,99611.44
2023-01-10T15:48:03.238Z,99625.91
2023-01-10T15:50:33.148Z,99629.59
2023-01-10T15:53:00.014Z,99629.75
2023-01-10T15:55:44.993Z,99635.13
2023-01-10T15:58:27.557Z,99641.84
2023-01-10T16:00:54.174Z,99629.59
2023-01-10T16:03:22.156Z,99620.25
2023-01-10T16:05:49.496Z,99621.03
2023-01-10T16:08:15.708Z,99619.44
2023-01-10T16:10:41.928Z,99611.44
2023-01-10T16:13:08.704Z,99606.03
2023-01-10T16:15:36.151Z,99615.69
2023-01-10T16:18:02.374Z,99629.19
2023-01-10T16:20:32.390Z,99651.25
2023-01-10T16:22:58.601Z,99651.19
2023-01-10T16:25:31.580Z,99658.72
2023-01-10T16:27:58.018Z,99666.22
2023-01-10T16:30:33.629Z,99662.00
2023-01-10T16:33:00.228Z,99675.28
2023-01-10T16:35:26.506Z,99688.53
2023-01-10T16:37:53.769Z,99699.41
2023-01-10T16:40:34.385Z,99694.22
2023-01-10T16:43:01.839Z,99709.06
2023-01-10T16:45:28.075Z,99707.88
2023-01-10T16:47:54.342Z,99700.09
2023-01-10T16:50:20.562Z,99693.56
2023-01-10T16:52:46.787Z,99692.69
2023-01-10T16:55:16.639Z,99698.84
2023-01-10T16:57:42.856Z,99711.34
2023-01-10T17:00:09.435Z,99704.97
2023-01-10T17:02:35.627Z,99712.81
2023-01-10T17:05:01.837Z,99709.91
2023-01-10T17:07:28.030Z,99711.25
2023-01-10T17:09:54.251Z,99703.69
2023-01-10T17:12:20.465Z,99703.16
2023-01-10T17:14:46.678Z,99712.50
2023-01-10T17:17:12.890Z,99698.97
2023-01-10T17:19:39.093Z,99705.75
2023-01-10T17:22:05.293Z,99711.47
2023-01-10T17:24:31.509Z,99706.84
2023-01-10T17:26:57.721Z,99708.34
2023-01-10T17:29:23.928Z,99730.63
2023-01-10T17:31:50.232Z,99735.25
2023-01-10T17:34:16.461Z,99731.28
2023-01-10T17:36:42.687Z,99733.22
2023-01-10T17:39:08.901Z,99740.22
2023-01-10T17:41:35.135Z,99751.22
2023-01-10T17:44:01.493Z,99752.25
2023-01-10T17:46:27.700Z,99767.69
2023-01-10T17:48:53.900Z,99767.00
2023-01-10T17:51:20.117Z,99764.88
2023-01-10T17:53:46.325Z,99779.63
2023-01-10T17:56:12.559Z,99784.03
2023-01-10T17:58:38.754Z,99786.28
2023-01-10T18:01:05.042Z,99789.56
2023-01-10T18:03:31.315Z,99792.06
2023-01-10T18:05:57.977Z,99789.38
2023-01-10T18:08:24.258Z,99787.69
2023-01-10T18:10:50.508Z,99788.63
2023-01-10T18:13:17.072Z,99790.97
2023-01-10T18:15:44.065Z,99791.09
2023-01-10T18:18:10.297Z,99795.94
2023-01-10T18:20:39.066Z,99805.06
2023-01-10T18:23:05.266Z,99799.00
2023-01-10T18:25:31.487Z,99798.75
2023-01-10T18:27:57.701Z,99797.97
2023-01-10T18:30:23.904Z,99801.34
2023-01-10T18:32:50.415Z,99804.41
2023-01-10T18:35:16.672Z,99808.66
2023-01-10T18:37:42.947Z,99815.88
2023-01-10T18:40:09.432Z,99807.56
2023-01-10T18:42:35.655Z,99807.00
2023-01-10T18:45:01.964Z,99808.69
2023-01-10T18:47:28.217Z,99794.38
2023-01-10T18:49:54.419Z,99798.91
2023-01-10T18:52:20.635Z,99782.69
2023-01-10T18:54:47.011Z,99788.78
2023-01-10T18:57:13.428Z,99786.38
2023-01-10T18:59:39.657Z,99791.78
2023-01-10T19:02:12.945Z,99783.59
2023-01-10T19:04:39.233Z,99784.56
2023-01-10T19:07:05.514Z,99780.91
2023-01-10T19:09:31.731Z,99777.97
2023-01-10T19:11:58.213Z,99771.00
2023-01-10T19:14:24.413Z,99765.25
2023-01-10T19:16:50.626Z,99759.84
2023-01-10T19:19:16.831Z,99771.00
2023-01-10T19:21:43.038Z,99772.00
2023-01-10T19:24:27.966Z,99766.72
2023-01-10T19:26:54.455Z,99759.38
2023-01-10T19:29:20.692Z,99760.63
2023-01-10T19:31:46.914Z,99757.50
2023-01-10T19:34:13.149Z,99748.47
2023-01-10T19:36:39.379Z,99749.81
2023-01-10T19:39:05.615Z,99744.41
2023-01-10T19:41:31.857Z,99751.53
2023-01-10T19:43:58.497Z,99755.78
2023-01-10T19:46:24.832Z,99757.34
2023-01-10T19:48:51.065Z,99762.53
2023-01-10T19:51:17.268Z,99758.13
2023-01-10T19:53:44.186Z,99762.44
2023-01-10T19:56:10.474Z,99762.19
2023-01-10T19:58:36.923Z,99773.34
2023-01-10T20:01:09.520Z,99777.19
2023-01-10T20:03:35.793Z,99781.66
2023-01-10T20:06:02.868Z,99789.22
2023-01-10T20:08:29.083Z,99797.09
2023-01-10T20:10:55.284Z,99810.47
2023-01-10T20:13:21.498Z,99816.69
2023-01-10T20:15:47.746Z,99827.47
2023-01-10T20:18:13.969Z,99832.44
2023-01-10T20:20:41.583Z,99845.59
2023-01-10T20:23:07.850Z,99845.03
2023-01-10T20:25:34.053Z,99861.16
2023-01-10T20:28:00.283Z,99868.91
2023-01-10T20:30:26.509Z,99880.06
2023-01-10T20:32:52.730Z,99885.47
2023-01-10T20:35:18.936Z,99888.38
2023-01-10T20:37:45.142Z,99896.94
2023-01-10T20:40:11.525Z,99920.47
2023-01-10T20:42:39.543Z,99933.97
2023-01-10T20:45:07.167Z,99938.47
2023-01-10T20:47:33.413Z,99945.22
2023-01-10T20:49:59.651Z,99959.75
2023-01-10T20:52:25.882Z,99967.38
2023-01-10T20:54:52.081Z,99971.34
2023-01-10T20:57:18.299Z,99979.69
2023-01-10T20:59:44.496Z,99979.00
2023-01-10T21:02:10.836Z,99977.22
2023-01-10T21:04:37.102Z,99981.81
2023-01-10T21:07:03.406Z,99982.25
2023-01-10T21:09:29.643Z,99985.66
2023-01-10T21:12:07.392Z,99975.06
2023-01-10T21:14:39.923Z,99986.22
2023-01-10T21:17:06.130Z,99991.59
2023-01-10T21:19:32.334Z,100006.69
2023-01-10T21:21:58.532Z,100000.50
2023-01-10T21:24:24.761Z,99999.25
2023-01-10T21:26:50.980Z,99994.84
2023-01-10T21:29:17.243Z,99982.81
2023-01-10T21:31:43.509Z,99977.09
2023-01-10T21:34:09.780Z,99988.50
2023-01-10T21:36:36.004Z,100011.41
2023-01-10T21:39:02.214Z,100003.75
2023-01-10T21:41:29.105Z,99992.19
2023-01-10T21:43:55.352Z,99984.09
2023-01-10T21:46:21.600Z,99973.25
2023-01-10T21:48:47.830Z,99978.09
2023-01-10T21:51:14.026Z,99966.84
2023-01-10T21:53:40.235Z,99965.28
2023-01-10T21:56:06.614Z,99959.09
2023-01-10T21:58:32.821Z,99957.03
2023-01-10T22:00:59.159Z,99941.50
2023-01-10T22:03:25.500Z,99938.25
2023-01-10T22:05:51.735Z,99949.97
2023-01-10T22:08:17.946Z,99933.97
2023-01-10T22:10:44.152Z,99932.06
2023-01-10T22:13:10.344Z,99940.63
2023-01-10T22:15:36.560Z,99931.94
2023-01-10T22:18:02.781Z,99912.00
2023-01-10T22:20:28.995Z,99913.16
2023-01-10T22:22:55.193Z,99905.38
2023-01-10T22:25:21.407Z,99888.63
2023-01-10T22:27:47.634Z,99903.59
2023-01-10T22:30:13.846Z,99896.59
2023-01-10T22:32:40.044Z,99893.88
2023-01-10T22:35:06.332Z,99907.19
2023-01-10T22:37:32.535Z,99907.53
2023-01-10T22:39:58.741Z,99883.44
2023-01-10T22:42:24.941Z,99889.41
2023-01-10T22:44:51.151Z,99883.50
2023-01-10T22:47:17.361Z,99902.66
2023-01-10T22:49:43.562Z,99911.22
2023-01-10T22:52:09.760Z,99918.00
2023-01-10T22:54:35.985Z,99911.56
2023-01-10T22:57:02.187Z,99904.38
2023-01-10T22:59:28.427Z,99895.13
2023-01-10T23:01:54.621Z,99899.28
2023-01-10T23:04:20.936Z,99913.38
2023-01-10T23:06:47.209Z,99934.19
2023-01-10T23:09:13.433Z,99954.44
2023-01-10T23:11:39.637Z,99969.97
2023-01-10T23:14:05.848Z,100005.84
2023-01-10T23:16:32.123Z,100024.31
2023-01-10T23:18:58.449Z,100056.28
2023-01-10T23:21:24.995Z,100074.06
2023-01-10T23:23:51.213Z,100101.75
2023-01-10T23:26:17.565Z,100112.94
2023-01-10T23:28:44.824Z,100121.59
2023-01-10T23:31:11.123Z,100142.63
2023-01-10T23:33:37.325Z,100147.81
2023-01-10T23:36:03.713Z,100144.09
2023-01-10T23:38:29.942Z,100141.94
2023-01-10T23:40:56.165Z,100139.97
2023-01-10T23:43:22.502Z,100131.84
2023-01-10T23:45:48.775Z,100122.28
2023-01-10T23:48:15.108Z,100101.59
2023-01-10T23:50:41.345Z,100093.50
2023-01-10T23:53:07.552Z,100064.69
2023-01-10T23:55:33.757Z,100051.75
2023-01-10T23:58:00.037Z,100031.84
